Time;durP1;ratioP1;P1;durP2;ratioP2;P2;SDS_P1;SDS_P2;PMS_P1;PMS_P2;Temp;Humidity;BMP_temperature;BMP_pressure;BME280_temperature;BME280_humidity;BME280_pressure;Samples;Min_cycle;Max_cycle;Signal;HPM_P1;HPM_P2
2021/05/13 00:01:12;;;;;;;14.43;12.87;;;;;;;;;;5074038;28;20539;-72
2021/05/13 00:03:39;;;;;;;14.77;13.20;;;;;;;;;;5074267;28;20443;-73
2021/05/13 00:06:05;;;;;;;17.30;11.80;;;;;;;;;;5073607;28;20566;-75
2021/05/13 00:08:32;;;;;;;13.27;11.90;;;;;;;;;;5073969;28;20638;-73
2021/05/13 00:11:04;;;;;;;14.17;11.63;;;;;;;;;;5073948;28;20447;-73
2021/05/13 00:13:31;;;;;;;13.07;11.70;;;;;;;;;;5073589;28;20486;-73
2021/05/13 00:15:58;;;;;;;18.03;12.93;;;;;;;;;;5074019;28;20479;-73
2021/05/13 00:18:25;;;;;;;15.97;12.03;;;;;;;;;;5073477;28;20444;-73
2021/05/13 00:20:52;;;;;;;13.07;11.73;;;;;;;;;;5073280;28;20440;-73
2021/05/13 00:23:19;;;;;;;13.73;12.07;;;;;;;;;;5073453;28;20498;-73
2021/05/13 00:25:47;;;;;;;15.93;12.00;;;;;;;;;;5073320;28;20451;-72
2021/05/13 00:28:15;;;;;;;12.83;10.67;;;;;;;;;;5073667;28;20488;-73
2021/05/13 00:30:42;;;;;;;16.90;12.57;;;;;;;;;;5073619;28;20471;-73
2021/05/13 00:33:08;;;;;;;16.03;11.37;;;;;;;;;;5073274;28;20436;-73
2021/05/13 00:35:35;;;;;;;14.30;11.17;;;;;;;;;;5073365;28;20438;-73
2021/05/13 00:38:02;;;;;;;12.53;11.30;;;;;;;;;;5073248;28;20440;-72
2021/05/13 00:40:28;;;;;;;15.27;10.33;;;;;;;;;;5073569;28;20527;-73
2021/05/13 00:42:55;;;;;;;12.33;10.47;;;;;;;;;;5073514;28;20450;-73
2021/05/13 00:45:23;;;;;;;12.25;11.00;;;;;;;;;;5073516;28;20446;-73
2021/05/13 00:48:03;;;;;;;12.83;9.97;;;;;;;;;;5073646;28;20232;-73
2021/05/13 00:50:30;;;;;;;13.83;10.67;;;;;;;;;;5073875;28;20423;-73
2021/05/13 00:52:57;;;;;;;14.00;11.33;;;;;;;;;;5073453;28;20436;-73
2021/05/13 00:55:24;;;;;;;13.70;11.93;;;;;;;;;;5073345;28;20527;-73
2021/05/13 00:57:53;;;;;;;13.10;10.73;;;;;;;;;;5073787;28;20528;-73
2021/05/13 01:00:35;;;;;;;12.33;11.03;;;;;;;;;;5073847;28;20823;-73
2021/05/13 01:03:03;;;;;;;17.35;11.55;;;;;;;;;;5073348;28;20990;-73
2021/05/13 01:05:30;;;;;;;12.77;11.47;;;;;;;;;;5073215;28;20193;-73
2021/05/13 01:07:57;;;;;;;17.37;12.00;;;;;;;;;;5072824;28;20586;-73
2021/05/13 01:10:25;;;;;;;13.07;11.73;;;;;;;;;;5073172;28;20443;-73
2021/05/13 01:12:53;;;;;;;13.47;11.63;;;;;;;;;;5072802;28;20259;-73
2021/05/13 01:15:23;;;;;;;16.73;11.70;;;;;;;;;;5072815;28;20954;-73
2021/05/13 01:17:58;;;;;;;16.43;12.93;;;;;;;;;;5073252;28;20459;-73
2021/05/13 01:20:27;;;;;;;14.10;11.90;;;;;;;;;;5073059;28;20500;-73
2021/05/13 01:22:55;;;;;;;14.48;11.07;;;;;;;;;;5073193;28;20200;-73
2021/05/13 01:25:22;;;;;;;12.30;10.73;;;;;;;;;;5072075;28;20609;-73
2021/05/13 01:27:48;;;;;;;17.42;11.40;;;;;;;;;;5072359;28;20472;-73
2021/05/13 01:30:17;;;;;;;18.03;11.90;;;;;;;;;;5072076;28;20222;-73
2021/05/13 01:32:43;;;;;;;15.20;12.82;;;;;;;;;;5075955;28;20467;-73
2021/05/13 01:35:10;;;;;;;13.23;11.40;;;;;;;;;;5075942;28;20248;-73
2021/05/13 01:37:37;;;;;;;14.90;13.33;;;;;;;;;;5075724;28;20933;-73
2021/05/13 01:40:06;;;;;;;16.15;11.55;;;;;;;;;;5073352;28;20485;-73
2021/05/13 01:42:33;;;;;;;14.43;11.90;;;;;;;;;;5075991;28;20548;-73
2021/05/13 01:44:59;;;;;;;15.83;13.57;;;;;;;;;;5075772;28;20206;-73
2021/05/13 01:47:26;;;;;;;14.10;11.27;;;;;;;;;;5075804;28;20476;-73
2021/05/13 01:49:53;;;;;;;15.93;12.67;;;;;;;;;;5075568;28;20193;-73
2021/05/13 01:52:19;;;;;;;14.43;13.02;;;;;;;;;;5075822;28;20803;-73
2021/05/13 01:54:46;;;;;;;15.23;13.63;;;;;;;;;;5075687;28;20196;-72
2021/05/13 01:57:13;;;;;;;15.87;12.83;;;;;;;;;;5075500;28;20438;-72
2021/05/13 01:59:40;;;;;;;16.07;13.43;;;;;;;;;;5075511;28;20933;-72
2021/05/13 02:02:09;;;;;;;14.83;13.33;;;;;;;;;;5075525;28;20570;-73
2021/05/13 02:04:35;;;;;;;17.27;14.00;;;;;;;;;;5072666;28;20435;-73
2021/05/13 02:07:02;;;;;;;16.40;14.10;;;;;;;;;;5075341;28;20544;-72
2021/05/13 02:09:29;;;;;;;15.30;13.70;;;;;;;;;;5075230;28;20450;-72
2021/05/13 02:11:58;;;;;;;18.27;13.60;;;;;;;;;;5072851;28;20431;-73
2021/05/13 02:14:26;;;;;;;16.03;14.37;;;;;;;;;;5075408;28;20513;-73
2021/05/13 02:16:52;;;;;;;16.00;14.30;;;;;;;;;;5075235;28;20519;-73
2021/05/13 02:19:19;;;;;;;19.33;14.50;;;;;;;;;;5075019;28;20200;-73
2021/05/13 02:21:46;;;;;;;17.63;14.52;;;;;;;;;;5075236;28;20444;-72
2021/05/13 02:24:12;;;;;;;18.08;15.75;;;;;;;;;;5074827;28;20189;-73
2021/05/13 02:26:39;;;;;;;25.27;16.70;;;;;;;;;;5074758;28;20733;-73
2021/05/13 02:29:06;;;;;;;23.85;16.65;;;;;;;;;;5074671;28;20291;-73
2021/05/13 02:31:33;;;;;;;26.90;16.27;;;;;;;;;;5075530;28;20230;-73
2021/05/13 02:34:09;;;;;;;16.48;14.88;;;;;;;;;;5075414;28;20651;-73
2021/05/13 02:36:37;;;;;;;18.48;16.50;;;;;;;;;;5075887;28;20525;-73
2021/05/13 02:39:04;;;;;;;22.17;17.75;;;;;;;;;;5075673;28;20226;-73
2021/05/13 02:41:31;;;;;;;20.67;16.70;;;;;;;;;;5075672;28;20193;-73
2021/05/13 02:43:57;;;;;;;17.85;16.05;;;;;;;;;;5074880;28;20193;-73
2021/05/13 02:46:24;;;;;;;18.53;16.00;;;;;;;;;;5075097;28;20225;-73
2021/05/13 02:48:52;;;;;;;19.30;16.45;;;;;;;;;;5076034;28;20435;-73
2021/05/13 02:51:18;;;;;;;22.63;17.60;;;;;;;;;;5075078;28;20201;-73
2021/05/13 02:53:45;;;;;;;21.38;17.30;;;;;;;;;;5075568;28;20860;-73
2021/05/13 02:56:12;;;;;;;20.25;18.25;;;;;;;;;;5075571;28;20221;-73
2021/05/13 02:58:39;;;;;;;18.87;16.90;;;;;;;;;;5075111;28;20292;-74
2021/05/13 03:01:21;;;;;;;18.75;16.33;;;;;;;;;;5075487;28;20501;-73
2021/05/13 03:03:47;;;;;;;19.90;16.00;;;;;;;;;;5075806;28;20218;-73
2021/05/13 03:06:15;;;;;;;17.45;15.65;;;;;;;;;;5074671;28;20224;-73
2021/05/13 03:08:42;;;;;;;19.13;16.95;;;;;;;;;;5075774;28;20257;-73
2021/05/13 03:11:09;;;;;;;19.48;16.38;;;;;;;;;;5075049;28;20623;-73
2021/05/13 03:13:36;;;;;;;19.77;16.52;;;;;;;;;;5075309;28;20253;-73
2021/05/13 03:16:03;;;;;;;23.10;16.97;;;;;;;;;;5074910;28;20224;-73
2021/05/13 03:18:33;;;;;;;20.45;17.38;;;;;;;;;;5075118;28;20529;-73
2021/05/13 03:21:04;;;;;;;24.05;17.15;;;;;;;;;;5074904;28;20197;-73
2021/05/13 03:23:40;;;;;;;22.27;17.43;;;;;;;;;;5074776;28;20199;-73
2021/05/13 03:26:07;;;;;;;22.45;16.83;;;;;;;;;;5074981;28;20435;-73
2021/05/13 03:28:34;;;;;;;18.92;16.98;;;;;;;;;;5074234;28;20198;-73
2021/05/13 03:31:00;;;;;;;24.50;18.45;;;;;;;;;;5075106;28;20223;-73
2021/05/13 03:33:27;;;;;;;18.60;16.45;;;;;;;;;;5074585;28;20201;-73
2021/05/13 03:35:54;;;;;;;19.70;16.10;;;;;;;;;;5074473;28;20196;-73
2021/05/13 03:38:20;;;;;;;19.75;17.23;;;;;;;;;;5074131;28;20198;-73
2021/05/13 03:40:49;;;;;;;17.15;15.35;;;;;;;;;;5074459;28;20197;-73
2021/05/13 03:43:16;;;;;;;19.30;17.30;;;;;;;;;;5074000;28;20196;-73
2021/05/13 03:45:42;;;;;;;23.20;19.30;;;;;;;;;;5074437;28;20290;-73
2021/05/13 03:48:09;;;;;;;21.30;18.10;;;;;;;;;;5074292;28;20230;-73
2021/05/13 03:50:37;;;;;;;20.37;17.20;;;;;;;;;;5074191;28;20197;-73
2021/05/13 03:53:04;;;;;;;20.60;17.30;;;;;;;;;;5074186;28;20501;-73
2021/05/13 03:55:31;;;;;;;19.42;17.42;;;;;;;;;;5074111;28;20283;-73
2021/05/13 03:58:00;;;;;;;22.30;17.55;;;;;;;;;;5074057;28;20767;-73
2021/05/13 04:00:31;;;;;;;23.67;17.45;;;;;;;;;;5074240;28;20198;-74
2021/05/13 04:02:58;;;;;;;23.25;18.60;;;;;;;;;;5074175;28;20185;-73
2021/05/13 04:05:25;;;;;;;24.27;17.73;;;;;;;;;;5073716;28;20671;-73
2021/05/13 04:07:52;;;;;;;23.27;17.30;;;;;;;;;;5073574;28;20476;-74
2021/05/13 04:10:19;;;;;;;23.27;16.60;;;;;;;;;;5073881;28;20228;-73
2021/05/13 04:12:50;;;;;;;19.38;16.60;;;;;;;;;;5074039;28;20200;-73
2021/05/13 04:15:17;;;;;;;21.42;15.57;;;;;;;;;;5073895;28;20201;-74
2021/05/13 04:17:44;;;;;;;20.95;16.20;;;;;;;;;;5073471;28;20681;-73
2021/05/13 04:20:11;;;;;;;19.73;16.63;;;;;;;;;;5073950;28;20204;-73
2021/05/13 04:22:38;;;;;;;21.00;17.52;;;;;;;;;;5073618;28;20196;-73
2021/05/13 04:25:05;;;;;;;19.33;17.33;;;;;;;;;;5074139;28;20207;-73
2021/05/13 04:27:32;;;;;;;17.30;14.55;;;;;;;;;;5074207;28;20277;-73
2021/05/13 04:29:58;;;;;;;18.70;16.65;;;;;;;;;;5073432;28;20274;-73
2021/05/13 04:32:26;;;;;;;20.50;17.23;;;;;;;;;;5074312;28;20561;-72
2021/05/13 04:34:53;;;;;;;20.98;16.70;;;;;;;;;;5073323;28;20982;-75
2021/05/13 04:37:20;;;;;;;19.45;16.05;;;;;;;;;;5073548;28;20226;-74
2021/05/13 04:39:46;;;;;;;24.27;16.38;;;;;;;;;;5073504;28;20241;-74
2021/05/13 04:42:13;;;;;;;21.20;14.70;;;;;;;;;;5073764;28;20208;-73
2021/05/13 04:44:40;;;;;;;20.77;15.30;;;;;;;;;;5073147;28;20625;-73
2021/05/13 04:47:25;;;;;;;18.23;15.50;;;;;;;;;;5073053;28;20225;-73
2021/05/13 04:49:53;;;;;;;18.58;15.65;;;;;;;;;;5071949;28;20445;-73
2021/05/13 04:52:21;;;;;;;16.90;15.10;;;;;;;;;;5072700;28;20315;-74
2021/05/13 04:54:49;;;;;;;24.47;14.50;;;;;;;;;;5072988;28;20442;-74
2021/05/13 04:57:16;;;;;;;17.37;13.80;;;;;;;;;;5072857;28;20552;-73
2021/05/13 04:59:44;;;;;;;15.73;12.73;;;;;;;;;;5073635;28;20456;-73
2021/05/13 05:02:11;;;;;;;14.60;12.37;;;;;;;;;;5072941;28;20442;-73
2021/05/13 05:04:37;;;;;;;13.90;11.23;;;;;;;;;;5072482;28;20500;-73
2021/05/13 05:07:05;;;;;;;13.57;11.20;;;;;;;;;;5075420;28;20836;-74
2021/05/13 05:09:32;;;;;;;17.00;10.17;;;;;;;;;;5076876;28;20479;-74
2021/05/13 05:11:59;;;;;;;15.50;11.83;;;;;;;;;;5077079;28;20444;-73
2021/05/13 05:14:26;;;;;;;15.90;11.00;;;;;;;;;;5076848;28;20447;-74
2021/05/13 05:16:52;;;;;;;11.43;9.10;;;;;;;;;;5077080;28;20444;-74
2021/05/13 05:19:19;;;;;;;17.30;10.97;;;;;;;;;;5076776;28;20472;-74
2021/05/13 05:21:46;;;;;;;12.93;11.30;;;;;;;;;;5076892;28;20997;-75
2021/05/13 05:24:14;;;;;;;15.13;10.03;;;;;;;;;;5076861;28;20436;-73
2021/05/13 05:26:40;;;;;;;12.57;11.10;;;;;;;;;;5076751;28;20538;-74
2021/05/13 05:29:07;;;;;;;14.70;10.37;;;;;;;;;;5077308;28;20543;-74
2021/05/13 05:31:34;;;;;;;12.23;11.00;;;;;;;;;;5077701;28;20933;-73
2021/05/13 05:34:01;;;;;;;13.83;10.97;;;;;;;;;;5077304;28;20529;-73
2021/05/13 05:36:28;;;;;;;19.30;10.87;;;;;;;;;;5076576;28;20962;-73
2021/05/13 05:38:55;;;;;;;10.90;9.80;;;;;;;;;;5076295;28;20444;-73
2021/05/13 05:41:23;;;;;;;14.93;11.03;;;;;;;;;;5076746;28;20463;-74
2021/05/13 05:43:50;;;;;;;12.27;9.77;;;;;;;;;;5076704;28;20489;-74
2021/05/13 05:46:17;;;;;;;13.73;9.67;;;;;;;;;;5076810;28;20475;-73
2021/05/13 05:48:43;;;;;;;12.60;11.03;;;;;;;;;;5076443;28;20479;-73
2021/05/13 05:51:10;;;;;;;13.30;10.30;;;;;;;;;;5076438;28;20432;-74
2021/05/13 05:53:37;;;;;;;12.20;10.97;;;;;;;;;;5076080;28;20992;-73
2021/05/13 05:56:04;;;;;;;14.17;10.23;;;;;;;;;;5076061;28;20442;-73
2021/05/13 05:58:32;;;;;;;11.43;10.17;;;;;;;;;;5076035;28;20519;-72
2021/05/13 06:00:58;;;;;;;14.07;10.17;;;;;;;;;;5076039;28;20445;-73
2021/05/13 06:03:25;;;;;;;17.13;14.00;;;;;;;;;;5076017;28;20440;-73
2021/05/13 06:05:52;;;;;;;12.37;10.90;;;;;;;;;;5076386;28;20439;-73
2021/05/13 06:08:19;;;;;;;15.67;13.00;;;;;;;;;;5076266;28;20482;-73
2021/05/13 06:10:45;;;;;;;12.70;11.47;;;;;;;;;;5076228;28;20444;-73
2021/05/13 06:13:12;;;;;;;18.20;14.07;;;;;;;;;;5076166;28;20535;-73
2021/05/13 06:15:40;;;;;;;16.80;12.87;;;;;;;;;;5075733;28;20471;-73
2021/05/13 06:18:07;;;;;;;19.23;14.93;;;;;;;;;;5074382;28;20503;-73
2021/05/13 06:20:35;;;;;;;19.50;16.50;;;;;;;;;;5075577;28;20943;-73
2021/05/13 06:23:02;;;;;;;20.83;14.33;;;;;;;;;;5076040;28;20786;-73
2021/05/13 06:25:28;;;;;;;15.67;13.97;;;;;;;;;;5075620;28;20466;-72
2021/05/13 06:27:56;;;;;;;20.10;16.00;;;;;;;;;;5075592;28;21010;-73
2021/05/13 06:30:23;;;;;;;22.33;17.53;;;;;;;;;;5076053;28;20621;-73
2021/05/13 06:32:51;;;;;;;22.20;18.70;;;;;;;;;;5075991;28;20444;-73
2021/05/13 06:35:18;;;;;;;23.53;18.70;;;;;;;;;;5075708;28;20554;-73
2021/05/13 06:37:46;;;;;;;19.50;17.33;;;;;;;;;;5075706;28;20809;-73
2021/05/13 06:40:13;;;;;;;21.47;17.87;;;;;;;;;;5075918;28;20443;-71
2021/05/13 06:42:40;;;;;;;31.00;21.40;;;;;;;;;;5075645;28;20436;-70
2021/05/13 06:45:07;;;;;;;18.83;16.93;;;;;;;;;;5075290;28;20450;-70
2021/05/13 06:47:34;;;;;;;21.80;19.37;;;;;;;;;;5075579;28;20484;-84
2021/05/13 06:50:02;;;;;;;22.33;18.97;;;;;;;;;;5075593;28;20435;-73
2021/05/13 06:52:29;;;;;;;21.90;19.40;;;;;;;;;;5075554;28;20440;-72
2021/05/13 06:54:55;;;;;;;23.53;20.97;;;;;;;;;;5075433;28;20445;-71
2021/05/13 06:57:22;;;;;;;22.27;18.30;;;;;;;;;;5075876;28;20783;-71
2021/05/13 06:59:49;;;;;;;23.50;21.00;;;;;;;;;;5075223;28;20501;-70
2021/05/13 07:02:15;;;;;;;21.67;19.37;;;;;;;;;;5075241;28;20444;-70
2021/05/13 07:04:42;;;;;;;23.90;19.47;;;;;;;;;;5074621;28;20451;-70
2021/05/13 07:07:10;;;;;;;21.30;18.90;;;;;;;;;;5074661;28;21010;-70
2021/05/13 07:09:36;;;;;;;25.07;18.80;;;;;;;;;;5075043;28;20485;-70
2021/05/13 07:12:03;;;;;;;23.03;18.47;;;;;;;;;;5074484;28;20935;-70
2021/05/13 07:14:30;;;;;;;25.07;19.60;;;;;;;;;;5074952;28;20936;-70
2021/05/13 07:16:57;;;;;;;21.40;19.13;;;;;;;;;;5074864;28;20444;-70
2021/05/13 07:19:23;;;;;;;19.93;17.53;;;;;;;;;;5074569;28;20626;-70
2021/05/13 07:21:50;;;;;;;21.37;18.10;;;;;;;;;;5074768;28;20781;-70
2021/05/13 07:24:18;;;;;;;20.67;18.67;;;;;;;;;;5074852;28;20459;-71
2021/05/13 07:26:45;;;;;;;20.57;18.47;;;;;;;;;;5074710;28;20979;-71
2021/05/13 07:29:12;;;;;;;23.87;18.90;;;;;;;;;;5074301;28;20485;-70
2021/05/13 07:31:39;;;;;;;25.00;18.57;;;;;;;;;;5074879;28;20461;-70
2021/05/13 07:34:06;;;;;;;18.80;16.90;;;;;;;;;;5074562;28;20873;-70
2021/05/13 07:36:33;;;;;;;20.90;17.07;;;;;;;;;;5074494;28;20536;-70
2021/05/13 07:38:59;;;;;;;20.03;17.10;;;;;;;;;;5074567;28;20531;-70
2021/05/13 07:41:27;;;;;;;22.27;19.00;;;;;;;;;;5074340;28;20436;-70
2021/05/13 07:43:56;;;;;;;23.53;16.33;;;;;;;;;;5074352;28;20441;-70
2021/05/13 07:46:26;;;;;;;23.47;16.30;;;;;;;;;;5074315;28;20807;-69
2021/05/13 07:48:53;;;;;;;21.10;16.10;;;;;;;;;;5074171;28;20433;-71
2021/05/13 07:51:22;;;;;;;22.10;17.47;;;;;;;;;;5074207;28;20489;-70
2021/05/13 07:53:49;;;;;;;17.03;15.23;;;;;;;;;;5074228;28;20440;-71
2021/05/13 07:56:16;;;;;;;18.00;16.17;;;;;;;;;;5073425;28;20449;-70
2021/05/13 07:58:43;;;;;;;18.90;16.50;;;;;;;;;;5073760;28;20479;-70
2021/05/13 08:01:10;;;;;;;22.03;16.80;;;;;;;;;;5073425;28;20947;-69
2021/05/13 08:03:37;;;;;;;19.57;15.87;;;;;;;;;;5073962;28;20449;-70
2021/05/13 08:06:04;;;;;;;16.00;14.50;;;;;;;;;;5073990;28;20444;-70
2021/05/13 08:08:31;;;;;;;17.83;15.80;;;;;;;;;;5074321;28;20929;-70
2021/05/13 08:10:57;;;;;;;20.57;16.73;;;;;;;;;;5074409;28;20451;-69
2021/05/13 08:13:24;;;;;;;18.97;17.17;;;;;;;;;;5073956;28;20436;-69
2021/05/13 08:15:52;;;;;;;21.20;17.67;;;;;;;;;;5073604;28;20555;-69
2021/05/13 08:18:18;;;;;;;20.40;16.70;;;;;;;;;;5073411;28;20523;-70
2021/05/13 08:20:45;;;;;;;19.30;17.40;;;;;;;;;;5074272;28;20433;-70
2021/05/13 08:23:12;;;;;;;19.13;17.13;;;;;;;;;;5073772;28;20445;-69
2021/05/13 08:25:39;;;;;;;19.87;17.83;;;;;;;;;;5073596;28;20441;-70
2021/05/13 08:28:05;;;;;;;20.00;18.00;;;;;;;;;;5074022;28;20488;-69
2021/05/13 08:30:32;;;;;;;26.30;16.67;;;;;;;;;;5073721;28;20472;-69
2021/05/13 08:33:00;;;;;;;19.43;17.43;;;;;;;;;;5073596;28;20562;-69
2021/05/13 08:35:27;;;;;;;20.10;17.00;;;;;;;;;;5073504;28;20535;-69
2021/05/13 08:37:53;;;;;;;21.20;19.10;;;;;;;;;;5073585;28;20509;-70
2021/05/13 08:40:20;;;;;;;20.30;18.20;;;;;;;;;;5072583;28;20532;-69
2021/05/13 08:42:47;;;;;;;20.20;16.20;;;;;;;;;;5073134;28;20924;-69
2021/05/13 08:45:14;;;;;;;19.17;17.13;;;;;;;;;;5072952;28;20451;-69
2021/05/13 08:47:45;;;;;;;18.17;16.37;;;;;;;;;;5073044;28;20567;-69
2021/05/13 08:50:13;;;;;;;18.80;16.03;;;;;;;;;;5073188;28;20515;-69
2021/05/13 08:52:39;;;;;;;17.40;15.53;;;;;;;;;;5073430;28;20441;-69
2021/05/13 08:55:07;;;;;;;19.50;15.43;;;;;;;;;;5073921;28;20524;-70
2021/05/13 08:57:34;;;;;;;16.83;14.00;;;;;;;;;;5073016;28;20442;-70
2021/05/13 09:00:00;;;;;;;17.20;14.80;;;;;;;;;;5073178;28;20452;-70
2021/05/13 09:02:29;;;;;;;16.10;14.50;;;;;;;;;;5073249;28;20899;-69
2021/05/13 09:04:56;;;;;;;17.10;15.37;;;;;;;;;;5073221;28;20440;-69
2021/05/13 09:07:26;;;;;;;15.13;13.60;;;;;;;;;;5072872;28;20516;-69
2021/05/13 09:09:57;;;;;;;17.40;15.33;;;;;;;;;;5072953;28;20440;-69
2021/05/13 09:12:24;;;;;;;16.80;13.43;;;;;;;;;;5073496;28;20488;-70
2021/05/13 09:14:58;;;;;;;19.03;13.00;;;;;;;;;;5073317;28;20445;-69
2021/05/13 09:17:26;;;;;;;15.33;13.87;;;;;;;;;;5072816;28;20470;-69
2021/05/13 09:19:52;;;;;;;16.03;14.03;;;;;;;;;;5073191;28;20436;-69
2021/05/13 09:22:21;;;;;;;15.90;13.47;;;;;;;;;;5073579;28;20844;-69
2021/05/13 09:24:50;;;;;;;17.07;14.53;;;;;;;;;;5072903;28;20453;-68
2021/05/13 09:27:18;;;;;;;16.73;15.00;;;;;;;;;;5073525;28;20898;-69
2021/05/13 09:29:45;;;;;;;15.73;14.23;;;;;;;;;;5072816;28;20979;-69
2021/05/13 09:32:15;;;;;;;15.63;13.20;;;;;;;;;;5073035;28;20444;-69
2021/05/13 09:34:42;;;;;;;15.53;13.70;;;;;;;;;;5073284;28;20516;-69
2021/05/13 09:37:09;;;;;;;15.23;13.67;;;;;;;;;;5072626;28;20494;-70
2021/05/13 09:39:36;;;;;;;21.30;13.77;;;;;;;;;;5072581;28;20455;-70
2021/05/13 09:42:04;;;;;;;18.33;15.20;;;;;;;;;;5071843;28;20527;-71
2021/05/13 09:44:32;;;;;;;14.47;12.93;;;;;;;;;;5072909;28;20443;-70
2021/05/13 09:47:11;;;;;;;15.90;14.30;;;;;;;;;;5072669;28;20887;-70
2021/05/13 09:49:52;;;;;;;17.50;14.50;;;;;;;;;;5073085;28;20433;-70
2021/05/13 09:52:34;;;;;;;17.60;14.67;;;;;;;;;;5073889;28;20998;-70
2021/05/13 09:55:14;;;;;;;23.10;15.43;;;;;;;;;;5076128;28;20436;-70
2021/05/13 09:57:44;;;;;;;18.13;15.87;;;;;;;;;;5076411;28;20504;-70
2021/05/13 10:00:11;;;;;;;19.03;15.23;;;;;;;;;;5076726;28;20452;-71
2021/05/13 10:02:37;;;;;;;18.07;14.77;;;;;;;;;;5076095;28;20532;-71
2021/05/13 10:05:05;;;;;;;17.27;15.47;;;;;;;;;;5076666;28;20442;-69
2021/05/13 10:07:31;;;;;;;19.43;17.33;;;;;;;;;;5075743;28;20479;-71
2021/05/13 10:09:58;;;;;;;17.60;15.33;;;;;;;;;;5076185;28;20539;-69
2021/05/13 10:12:26;;;;;;;21.63;16.67;;;;;;;;;;5075623;28;20458;-70
2021/05/13 10:14:54;;;;;;;21.70;16.30;;;;;;;;;;5076120;28;20432;-69
2021/05/13 10:17:21;;;;;;;20.47;16.97;;;;;;;;;;5075930;28;20448;-69
2021/05/13 10:19:49;;;;;;;23.00;17.67;;;;;;;;;;5075957;28;20771;-69
2021/05/13 10:22:17;;;;;;;22.30;18.07;;;;;;;;;;5075985;28;20833;-70
2021/05/13 10:24:44;;;;;;;20.77;16.57;;;;;;;;;;5076331;28;20437;-69
2021/05/13 10:27:17;;;;;;;19.43;17.33;;;;;;;;;;5075581;28;20480;-69
2021/05/13 10:29:44;;;;;;;25.87;21.50;;;;;;;;;;5075679;28;20838;-69
2021/05/13 10:32:15;;;;;;;20.57;18.43;;;;;;;;;;5075917;28;20449;-69
2021/05/13 10:34:48;;;;;;;23.60;18.47;;;;;;;;;;5075940;28;20891;-70
2021/05/13 10:37:17;;;;;;;21.83;18.93;;;;;;;;;;5076439;28;20864;-69
2021/05/13 10:39:59;;;;;;;25.97;19.23;;;;;;;;;;5075753;28;21012;-69
2021/05/13 10:42:29;;;;;;;20.13;17.57;;;;;;;;;;5067055;28;20480;-70
2021/05/13 10:44:56;;;;;;;25.00;19.57;;;;;;;;;;5075586;28;20436;-71
2021/05/13 10:47:28;;;;;;;22.60;19.10;;;;;;;;;;5075351;28;20476;-70
2021/05/13 10:49:55;;;;;;;26.60;20.73;;;;;;;;;;5075240;28;20424;-69
2021/05/13 10:52:35;;;;;;;20.80;18.60;;;;;;;;;;5075567;28;20442;-69
2021/05/13 10:55:04;;;;;;;22.27;19.80;;;;;;;;;;5075527;28;20512;-70
2021/05/13 10:57:46;;;;;;;25.63;21.77;;;;;;;;;;5075166;28;20466;-69
2021/05/13 11:00:23;;;;;;;21.50;17.50;;;;;;;;;;5075259;28;20544;-69
2021/05/13 11:02:51;;;;;;;22.70;20.30;;;;;;;;;;5074978;28;20438;-69
2021/05/13 11:05:41;;;;;;;27.40;20.57;;;;;;;;;;5074263;28;20447;-70
2021/05/13 11:08:40;;;;;;;23.53;21.10;;;;;;;;;;5075040;28;20482;-70
2021/05/13 11:11:07;;;;;;;21.13;19.13;;;;;;;;;;5032867;28;20889;-70
2021/05/13 11:13:40;;;;;;;25.23;22.63;;;;;;;;;;5032759;28;20431;-69
2021/05/13 11:16:07;;;;;;;22.43;20.10;;;;;;;;;;5053723;28;20485;-69
2021/05/13 11:18:34;;;;;;;18.80;16.93;;;;;;;;;;5074989;28;20533;-69
2021/05/13 11:21:01;;;;;;;19.40;17.40;;;;;;;;;;5075008;28;20523;-69
2021/05/13 11:23:32;;;;;;;18.03;15.70;;;;;;;;;;5074826;28;20528;-69
2021/05/13 11:25:59;;;;;;;17.50;15.80;;;;;;;;;;5074850;28;20430;-69
2021/05/13 11:28:30;;;;;;;19.80;16.33;;;;;;;;;;5074101;28;21000;-69
2021/05/13 11:30:58;;;;;;;23.20;16.07;;;;;;;;;;5075098;28;20477;-69
2021/05/13 11:33:25;;;;;;;17.57;15.33;;;;;;;;;;5074584;28;20853;-69
2021/05/13 11:36:02;;;;;;;18.47;16.30;;;;;;;;;;5074689;28;20862;-69
2021/05/13 11:38:29;;;;;;;17.67;13.33;;;;;;;;;;5074582;28;20476;-69
2021/05/13 11:40:56;;;;;;;15.87;13.97;;;;;;;;;;5074491;28;20528;-69
2021/05/13 11:43:24;;;;;;;14.60;13.07;;;;;;;;;;5074777;28;20448;-69
2021/05/13 11:45:52;;;;;;;16.83;13.43;;;;;;;;;;5074349;28;20444;-69
2021/05/13 11:48:27;;;;;;;12.83;11.53;;;;;;;;;;5074271;28;20508;-70
2021/05/13 11:50:54;;;;;;;16.20;13.13;;;;;;;;;;5074250;28;20500;-71
2021/05/13 11:53:22;;;;;;;16.40;13.20;;;;;;;;;;5074499;28;20442;-71
2021/05/13 11:55:49;;;;;;;14.20;12.70;;;;;;;;;;5074205;28;21007;-71
2021/05/13 11:58:33;;;;;;;13.40;11.23;;;;;;;;;;5074109;28;20455;-71
2021/05/13 12:01:13;;;;;;;14.97;10.10;;;;;;;;;;5074147;28;20448;-72
2021/05/13 12:03:40;;;;;;;10.83;9.80;;;;;;;;;;5073624;28;20524;-71
2021/05/13 12:06:07;;;;;;;14.90;11.27;;;;;;;;;;5073580;28;20465;-71
2021/05/13 12:08:37;;;;;;;14.40;12.30;;;;;;;;;;5073453;28;20844;-71
2021/05/13 12:11:16;;;;;;;34.70;13.00;;;;;;;;;;5074368;28;20540;-72
2021/05/13 12:13:43;;;;;;;11.87;10.23;;;;;;;;;;5073496;28;20902;-71
2021/05/13 12:16:09;;;;;;;10.40;9.40;;;;;;;;;;5072852;28;20861;-71
2021/05/13 12:18:36;;;;;;;14.93;10.50;;;;;;;;;;5073428;28;20445;-72
2021/05/13 12:21:03;;;;;;;12.57;11.10;;;;;;;;;;5073259;28;21028;-71
2021/05/13 12:23:31;;;;;;;14.27;11.00;;;;;;;;;;5073489;28;20524;-73
2021/05/13 12:25:58;;;;;;;11.27;10.27;;;;;;;;;;5074242;28;20531;-71
2021/05/13 12:28:25;;;;;;;15.53;9.80;;;;;;;;;;5073306;28;20968;-71
2021/05/13 12:30:52;;;;;;;11.37;9.77;;;;;;;;;;5073855;28;20961;-71
2021/05/13 12:33:22;;;;;;;9.80;8.73;;;;;;;;;;5073369;28;20442;-73
2021/05/13 12:35:49;;;;;;;10.53;8.40;;;;;;;;;;5073072;28;20446;-72
2021/05/13 12:38:16;;;;;;;12.47;8.57;;;;;;;;;;5073005;28;20441;-73
2021/05/13 12:40:45;;;;;;;10.17;8.50;;;;;;;;;;5072915;28;20446;-73
2021/05/13 12:43:12;;;;;;;10.57;9.40;;;;;;;;;;5073217;28;20964;-70
2021/05/13 12:45:43;;;;;;;10.80;8.67;;;;;;;;;;5073043;28;20465;-69
2021/05/13 12:48:11;;;;;;;10.23;9.23;;;;;;;;;;5072968;28;20481;-70
2021/05/13 12:50:39;;;;;;;12.20;10.60;;;;;;;;;;5073126;28;20449;-69
2021/05/13 12:53:10;;;;;;;11.93;10.57;;;;;;;;;;5073046;28;20445;-70
2021/05/13 12:55:37;;;;;;;14.10;10.97;;;;;;;;;;5073398;28;20437;-70
2021/05/13 12:58:10;;;;;;;9.77;8.80;;;;;;;;;;5072675;28;20508;-70
2021/05/13 13:00:37;;;;;;;11.40;10.20;;;;;;;;;;5072706;28;20481;-70
2021/05/13 13:03:05;;;;;;;14.37;10.10;;;;;;;;;;5072622;28;20924;-70
2021/05/13 13:05:31;;;;;;;10.33;9.23;;;;;;;;;;5073263;28;20508;-69
2021/05/13 13:07:58;;;;;;;13.30;10.37;;;;;;;;;;5073118;28;20469;-69
2021/05/13 13:10:31;;;;;;;11.67;9.60;;;;;;;;;;5072908;28;20525;-69
2021/05/13 13:13:05;;;;;;;12.77;9.60;;;;;;;;;;5073295;28;20764;-70
2021/05/13 13:15:35;;;;;;;12.20;10.20;;;;;;;;;;5073203;28;20807;-69
2021/05/13 13:18:04;;;;;;;10.23;9.20;;;;;;;;;;5073055;28;20520;-69
2021/05/13 13:20:30;;;;;;;11.33;10.23;;;;;;;;;;5072839;28;20976;-70
2021/05/13 13:23:12;;;;;;;13.10;8.27;;;;;;;;;;5072709;28;20436;-70
2021/05/13 13:25:39;;;;;;;15.20;10.33;;;;;;;;;;5072585;28;20470;-70
2021/05/13 13:28:06;;;;;;;13.70;11.33;;;;;;;;;;5075898;28;20469;-71
2021/05/13 13:30:33;;;;;;;13.87;11.23;;;;;;;;;;5076667;28;21041;-70
2021/05/13 13:33:11;;;;;;;17.20;11.23;;;;;;;;;;5076466;28;20453;-70
2021/05/13 13:35:41;;;;;;;12.20;10.80;;;;;;;;;;5076749;28;20915;-71
2021/05/13 13:38:09;;;;;;;11.97;10.77;;;;;;;;;;5076838;28;20457;-72
2021/05/13 13:40:36;;;;;;;18.70;12.10;;;;;;;;;;5076518;28;20481;-71
2021/05/13 13:43:05;;;;;;;13.23;11.93;;;;;;;;;;5076791;28;20449;-71
2021/05/13 13:45:36;;;;;;;12.73;11.47;;;;;;;;;;5076337;28;20445;-72
2021/05/13 13:48:08;;;;;;;13.00;11.70;;;;;;;;;;5076717;28;20480;-71
2021/05/13 13:50:35;;;;;;;14.57;10.97;;;;;;;;;;5077066;28;20498;-71
2021/05/13 13:53:03;;;;;;;12.97;11.77;;;;;;;;;;5076266;28;20438;-71
2021/05/13 13:55:30;;;;;;;13.17;11.37;;;;;;;;;;5076374;28;20931;-71
2021/05/13 13:57:57;;;;;;;13.90;11.70;;;;;;;;;;5076343;28;20488;-71
2021/05/13 14:00:24;;;;;;;13.70;11.80;;;;;;;;;;5076080;28;20543;-70
2021/05/13 14:02:52;;;;;;;13.30;11.60;;;;;;;;;;5076105;28;20507;-71
2021/05/13 14:05:19;;;;;;;11.47;10.13;;;;;;;;;;5075893;28;20441;-71
2021/05/13 14:07:46;;;;;;;13.27;10.20;;;;;;;;;;5076429;28;20485;-71
2021/05/13 14:10:12;;;;;;;14.10;9.77;;;;;;;;;;5076828;28;20480;-71
2021/05/13 14:12:39;;;;;;;11.63;10.60;;;;;;;;;;5076053;28;20523;-71
2021/05/13 14:15:07;;;;;;;11.23;10.13;;;;;;;;;;5076285;28;20483;-72
2021/05/13 14:17:34;;;;;;;10.60;9.60;;;;;;;;;;5075579;28;20453;-70
2021/05/13 14:20:02;;;;;;;13.40;9.33;;;;;;;;;;5076021;28;20445;-70
2021/05/13 14:22:29;;;;;;;10.23;9.33;;;;;;;;;;5076076;28;20924;-70
2021/05/13 14:24:56;;;;;;;11.90;8.27;;;;;;;;;;5075915;28;20520;-70